createdAt,value
2023-03-02T00:02:24.241Z,129.95
2023-03-02T00:04:59.471Z,141.98
2023-03-02T00:07:37.767Z,127.18
2023-03-02T00:10:12.181Z,126.32
2023-03-02T00:12:45.665Z,145.82
2023-03-02T00:15:20.555Z,129.15
2023-03-02T00:17:54.013Z,120.85
2023-03-02T00:20:27.688Z,152.10
2023-03-02T00:23:01.202Z,127.60
2023-03-02T00:25:34.665Z,151.10
2023-03-02T00:28:08.109Z,141.30
2023-03-02T00:30:42.938Z,135.20
2023-03-02T00:33:16.550Z,119.80
2023-03-02T00:35:50.104Z,148.85
2023-03-02T00:38:23.632Z,135.90
2023-03-02T00:40:57.301Z,127.85
2023-03-02T00:43:30.765Z,114.05
2023-03-02T00:46:11.928Z,129.13
2023-03-02T00:48:45.924Z,129.88
2023-03-02T00:51:20.247Z,129.38
2023-03-02T00:53:53.686Z,131.85
2023-03-02T00:56:27.222Z,132.10
2023-03-02T00:59:05.133Z,138.70
2023-03-02T01:01:40.349Z,130.02
2023-03-02T01:04:13.935Z,140.70
2023-03-02T01:06:47.856Z,132.90
2023-03-02T01:09:21.291Z,152.82
2023-03-02T01:11:55.413Z,148.30
2023-03-02T01:14:29.201Z,147.65
2023-03-02T01:17:04.154Z,144.63
2023-03-02T01:19:37.803Z,157.65
2023-03-02T01:22:12.217Z,151.40
2023-03-02T01:24:45.776Z,134.93
2023-03-02T01:27:19.224Z,132.32
2023-03-02T01:29:52.682Z,120.53
2023-03-02T01:32:28.077Z,111.25
2023-03-02T01:35:01.569Z,127.38
2023-03-02T01:37:35.061Z,114.50
2023-03-02T01:40:10.215Z,114.57
2023-03-02T01:42:52.787Z,111.65
2023-03-02T01:45:54.924Z,125.97
2023-03-02T01:48:47.758Z,118.55
2023-03-02T01:51:27.525Z,114.85
2023-03-02T01:54:08.615Z,130.50
2023-03-02T01:56:42.661Z,112.47
2023-03-02T01:59:19.852Z,98.72
2023-03-02T02:01:56.349Z,113.47
2023-03-02T02:04:33.454Z,110.15
2023-03-02T02:07:09.087Z,94.10
2023-03-02T02:09:46.907Z,101.85
2023-03-02T02:12:22.730Z,102.68
2023-03-02T02:15:00.681Z,102.10
2023-03-02T02:17:34.271Z,97.07
2023-03-02T02:20:20.649Z,89.53
2023-03-02T02:23:03.744Z,99.32
2023-03-02T02:25:58.404Z,74.90
2023-03-02T02:28:36.943Z,89.80
2023-03-02T02:31:15.254Z,96.10
2023-03-02T02:33:53.245Z,89.00
2023-03-02T02:36:33.534Z,97.07
2023-03-02T02:39:20.162Z,74.05
2023-03-02T02:41:59.731Z,85.45
2023-03-02T02:44:35.080Z,86.68
2023-03-02T02:47:18.423Z,76.22
2023-03-02T02:49:54.727Z,86.53
2023-03-02T02:52:30.196Z,83.30
2023-03-02T02:55:04.023Z,84.97
2023-03-02T02:57:39.232Z,67.13
2023-03-02T03:00:20.535Z,90.22
2023-03-02T03:02:59.854Z,77.55
2023-03-02T03:05:33.656Z,68.53
2023-03-02T03:08:09.491Z,71.68
2023-03-02T03:10:45.528Z,80.97
2023-03-02T03:13:20.867Z,72.75
2023-03-02T03:15:54.550Z,72.90
2023-03-02T03:18:28.005Z,86.25
2023-03-02T03:21:01.671Z,78.53
2023-03-02T03:23:38.530Z,81.68
2023-03-02T03:26:13.870Z,82.65
2023-03-02T03:28:48.769Z,70.80
2023-03-02T03:31:22.338Z,80.65
2023-03-02T03:33:56.898Z,74.28
2023-03-02T03:36:32.382Z,78.75
2023-03-02T03:39:07.840Z,65.57
2023-03-02T03:41:41.638Z,79.95
2023-03-02T03:44:17.153Z,75.35
2023-03-02T03:46:51.595Z,67.80
2023-03-02T03:49:25.317Z,73.47
2023-03-02T03:51:58.897Z,69.78
2023-03-02T03:54:32.832Z,82.53
2023-03-02T03:57:06.381Z,69.38
2023-03-02T03:59:41.336Z,61.20
2023-03-02T04:02:14.836Z,70.97
2023-03-02T04:04:49.520Z,74.97
2023-03-02T04:07:25.008Z,73.65
2023-03-02T04:10:03.903Z,76.90
2023-03-02T04:12:43.366Z,86.15
2023-03-02T04:15:19.238Z,77.75
2023-03-02T04:17:54.674Z,65.07
2023-03-02T04:20:30.576Z,69.45
2023-03-02T04:23:04.090Z,64.40
2023-03-02T04:25:37.691Z,63.53
2023-03-02T04:28:18.861Z,63.95
2023-03-02T04:30:54.114Z,58.75
2023-03-02T04:33:27.830Z,55.90
2023-03-02T04:36:01.759Z,54.45
2023-03-02T04:38:35.885Z,63.92
2023-03-02T04:41:09.349Z,54.50
2023-03-02T04:43:42.803Z,62.90
2023-03-02T04:46:20.931Z,51.55
2023-03-02T04:48:55.048Z,65.43
2023-03-02T04:51:30.700Z,58.03
2023-03-02T04:54:06.287Z,54.83
2023-03-02T04:56:39.669Z,51.22
2023-03-02T04:59:13.111Z,59.55
2023-03-02T05:01:48.949Z,64.00
2023-03-02T05:04:22.453Z,72.95
2023-03-02T05:06:56.051Z,57.90
2023-03-02T05:09:30.927Z,58.50
2023-03-02T05:12:04.470Z,53.72
2023-03-02T05:14:37.918Z,57.35
2023-03-02T05:17:12.765Z,62.38
2023-03-02T05:19:46.307Z,59.85
2023-03-02T05:22:19.748Z,60.03
2023-03-02T05:24:53.194Z,52.75
2023-03-02T05:27:26.753Z,65.32
2023-03-02T05:30:00.297Z,50.90
2023-03-02T05:32:35.201Z,63.15
2023-03-02T05:35:09.298Z,58.83
2023-03-02T05:37:44.781Z,54.72
2023-03-02T05:40:20.764Z,57.90
2023-03-02T05:42:54.272Z,61.88
2023-03-02T05:45:30.239Z,57.00
2023-03-02T05:48:05.948Z,56.72
2023-03-02T05:50:39.519Z,57.65
2023-03-02T05:53:13.004Z,56.63
2023-03-02T05:55:46.440Z,56.95
2023-03-02T05:58:20.951Z,55.45
2023-03-02T06:00:54.467Z,46.08
2023-03-02T06:03:29.687Z,51.25
2023-03-02T06:06:03.228Z,56.15
2023-03-02T06:08:41.003Z,66.18
2023-03-02T06:11:14.548Z,52.65
2023-03-02T06:13:48.049Z,52.15
2023-03-02T06:16:21.564Z,49.58
2023-03-02T06:18:56.444Z,63.38
2023-03-02T06:21:29.955Z,61.20
2023-03-02T06:24:03.429Z,68.32
2023-03-02T06:26:36.883Z,62.17
2023-03-02T06:29:10.561Z,61.20
2023-03-02T06:31:43.985Z,62.13
2023-03-02T06:34:18.879Z,72.30
2023-03-02T06:36:52.402Z,74.72
2023-03-02T06:39:25.830Z,70.43
2023-03-02T06:42:00.278Z,71.63
2023-03-02T06:44:33.761Z,71.18
2023-03-02T06:47:07.200Z,73.20
2023-03-02T06:49:42.045Z,67.07
2023-03-02T06:52:15.585Z,71.20
2023-03-02T06:54:49.191Z,78.85
2023-03-02T06:57:22.679Z,66.90
2023-03-02T06:59:56.084Z,76.68
2023-03-02T07:02:29.524Z,78.45
2023-03-02T07:05:04.607Z,69.15
2023-03-02T07:07:38.115Z,67.93
2023-03-02T07:10:13.462Z,78.78
2023-03-02T07:12:46.900Z,74.40
2023-03-02T07:15:20.860Z,139.07
2023-03-02T07:17:54.306Z,102.07
2023-03-02T07:20:29.181Z,72.05
2023-03-02T07:23:02.793Z,81.13
2023-03-02T07:25:37.088Z,60.20
2023-03-02T07:28:10.554Z,72.80
2023-03-02T07:30:44.236Z,59.35
2023-03-02T07:33:17.769Z,64.15
2023-03-02T07:35:52.682Z,62.10
2023-03-02T07:38:26.232Z,67.20
2023-03-02T07:40:59.712Z,60.75
2023-03-02T07:43:35.633Z,53.28
2023-03-02T07:46:09.146Z,50.90
2023-03-02T07:48:42.645Z,50.17
2023-03-02T07:51:17.464Z,49.53
2023-03-02T07:53:50.890Z,64.68
2023-03-02T07:56:24.452Z,60.58
2023-03-02T07:58:57.896Z,42.90
2023-03-02T08:01:31.812Z,37.35
2023-03-02T08:04:05.908Z,41.63
2023-03-02T08:06:42.525Z,43.05
2023-03-02T08:09:16.997Z,48.45
2023-03-02T08:11:50.613Z,55.13
2023-03-02T08:14:24.111Z,39.13
2023-03-02T08:16:57.621Z,40.05
2023-03-02T08:19:31.139Z,34.80
2023-03-02T08:22:06.006Z,31.55
2023-03-02T08:24:41.546Z,28.70
2023-03-02T08:27:16.298Z,28.85
2023-03-02T08:29:49.820Z,27.48
2023-03-02T08:32:23.304Z,31.48
2023-03-02T08:34:56.813Z,27.17
2023-03-02T08:37:31.745Z,31.30
2023-03-02T08:40:06.031Z,36.58
2023-03-02T08:42:39.498Z,28.20
2023-03-02T08:45:13.243Z,28.40
2023-03-02T08:47:46.880Z,26.80
2023-03-02T08:50:20.364Z,34.22
2023-03-02T08:52:55.282Z,35.45
2023-03-02T08:55:28.905Z,24.25
2023-03-02T08:58:02.352Z,18.38
2023-03-02T09:00:35.842Z,26.77
2023-03-02T09:03:09.300Z,24.67
2023-03-02T09:05:42.898Z,19.63
2023-03-02T09:08:17.734Z,21.73
2023-03-02T09:10:51.351Z,16.48
2023-03-02T09:13:24.829Z,19.55
2023-03-02T09:15:58.494Z,20.42
2023-03-02T09:18:32.367Z,23.17
2023-03-02T09:21:06.446Z,18.55
2023-03-02T09:23:41.345Z,20.40
2023-03-02T09:26:15.121Z,14.80
2023-03-02T09:28:49.504Z,18.45
2023-03-02T09:31:23.461Z,22.63
2023-03-02T09:33:58.159Z,19.95
2023-03-02T09:36:32.777Z,18.42
2023-03-02T09:39:12.351Z,16.13
2023-03-02T09:42:13.729Z,19.50
2023-03-02T09:45:27.053Z,12.68
2023-03-02T09:50:44.284Z,11.23
2023-03-02T09:53:40.537Z,9.45
2023-03-02T09:56:18.945Z,11.18
2023-03-02T09:58:57.710Z,6.72
2023-03-02T10:01:40.396Z,6.53
2023-03-02T10:04:23.720Z,9.93
2023-03-02T10:07:00.842Z,6.40
2023-03-02T10:09:34.359Z,5.53
2023-03-02T10:12:27.544Z,4.82
2023-03-02T10:15:07.124Z,4.25
2023-03-02T10:17:51.951Z,7.13
2023-03-02T10:20:34.640Z,4.10
2023-03-02T10:23:24.258Z,4.97
2023-03-02T10:26:07.221Z,6.45
2023-03-02T10:31:25.852Z,3.65
2023-03-02T10:36:38.984Z,5.65
2023-03-02T10:39:15.760Z,3.75
2023-03-02T10:41:53.212Z,5.20
2023-03-02T10:44:32.960Z,4.68
2023-03-02T10:47:07.668Z,5.00
2023-03-02T10:49:44.229Z,4.35
2023-03-02T10:52:19.738Z,3.17
2023-03-02T10:55:04.125Z,3.33
2023-03-02T10:57:39.573Z,4.55
2023-03-02T11:00:19.790Z,3.95
2023-03-02T11:02:55.163Z,5.72
2023-03-02T11:05:32.242Z,4.28
2023-03-02T11:08:07.943Z,5.20
2023-03-02T11:10:51.687Z,4.25
2023-03-02T11:13:28.559Z,5.35
2023-03-02T11:16:05.370Z,4.80
2023-03-02T11:18:41.338Z,6.50
2023-03-02T11:21:19.838Z,3.50
2023-03-02T11:24:01.198Z,4.57
2023-03-02T11:26:39.883Z,3.17
2023-03-02T11:29:22.736Z,4.03
2023-03-02T11:32:02.587Z,4.13
2023-03-02T11:34:41.820Z,3.63
2023-03-02T11:37:19.379Z,5.75
2023-03-02T11:40:16.452Z,2.55
2023-03-02T11:42:51.269Z,2.90
2023-03-02T11:45:27.455Z,2.90
2023-03-02T11:48:08.525Z,4.85
2023-03-02T11:50:52.177Z,3.75
2023-03-02T11:53:31.768Z,3.70
2023-03-02T11:56:05.769Z,3.30
2023-03-02T11:58:39.695Z,3.63
2023-03-02T12:01:19.262Z,6.82
2023-03-02T12:03:55.093Z,13.07
2023-03-02T12:06:37.639Z,2.70
2023-03-02T12:09:34.438Z,3.70
2023-03-02T12:12:37.075Z,2.10
2023-03-02T12:15:27.874Z,2.08
2023-03-02T12:18:01.448Z,2.10
2023-03-02T12:20:37.499Z,4.60
2023-03-02T12:23:22.343Z,1.65
2023-03-02T12:26:06.386Z,4.68
2023-03-02T12:28:41.509Z,3.95
2023-03-02T12:31:15.279Z,2.85
2023-03-02T12:33:50.913Z,2.03
2023-03-02T12:36:30.726Z,3.92
2023-03-02T12:39:26.849Z,2.85
2023-03-02T12:42:21.531Z,2.55
2023-03-02T12:45:04.572Z,2.97
2023-03-02T12:47:42.536Z,3.33
2023-03-02T12:50:23.282Z,3.38
2023-03-02T12:53:02.839Z,2.97
2023-03-02T12:55:39.220Z,2.28
2023-03-02T12:58:19.382Z,5.65
2023-03-02T13:00:55.494Z,4.28
2023-03-02T13:03:30.822Z,2.38
2023-03-02T13:06:06.195Z,3.97
2023-03-02T13:08:43.779Z,2.42
2023-03-02T13:11:26.934Z,5.38
2023-03-02T13:14:03.714Z,3.10
2023-03-02T13:16:37.629Z,3.72
2023-03-02T13:19:16.623Z,11.35
2023-03-02T13:21:50.531Z,3.47
2023-03-02T13:24:33.653Z,2.90
2023-03-02T13:27:09.345Z,4.32
2023-03-02T13:29:42.837Z,5.32
2023-03-02T13:32:21.914Z,5.25
2023-03-02T13:34:57.271Z,6.45
2023-03-02T13:37:39.231Z,2.90
2023-03-02T13:40:39.181Z,23.58
2023-03-02T13:43:32.543Z,3.33
2023-03-02T13:46:08.204Z,2.58
2023-03-02T13:48:41.758Z,2.80
2023-03-02T13:51:18.376Z,3.78
2023-03-02T13:53:56.104Z,3.72
2023-03-02T13:56:34.359Z,7.00
2023-03-02T13:59:13.678Z,4.28
2023-03-02T14:01:47.260Z,4.43
2023-03-02T14:04:24.062Z,9.40
2023-03-02T14:06:57.610Z,6.00
2023-03-02T14:09:31.056Z,6.85
2023-03-02T14:12:07.747Z,6.72
2023-03-02T14:14:44.422Z,10.10
2023-03-02T14:17:22.881Z,7.32
2023-03-02T14:19:56.532Z,9.18
2023-03-02T14:22:30.296Z,10.60
2023-03-02T14:25:03.846Z,8.60
2023-03-02T14:27:39.973Z,9.85
2023-03-02T14:30:17.078Z,8.55
2023-03-02T14:32:51.196Z,13.30
2023-03-02T14:35:26.236Z,9.57
2023-03-02T14:38:00.212Z,35.28
2023-03-02T14:40:33.693Z,19.60
2023-03-02T14:43:09.853Z,12.75
2023-03-02T14:45:43.413Z,11.20
2023-03-02T14:48:17.091Z,10.77
2023-03-02T14:50:51.417Z,9.75
2023-03-02T14:53:29.461Z,13.60
2023-03-02T14:56:03.270Z,10.50
2023-03-02T14:58:38.564Z,11.98
2023-03-02T15:01:13.379Z,10.10
2023-03-02T15:03:47.322Z,10.30
2023-03-02T15:06:27.852Z,16.30
2023-03-02T15:09:02.516Z,11.20
2023-03-02T15:11:36.316Z,11.73
2023-03-02T15:14:11.383Z,12.85
2023-03-02T15:16:45.370Z,13.20
2023-03-02T15:19:19.338Z,16.20
2023-03-02T15:21:53.001Z,11.10
2023-03-02T15:24:27.126Z,15.57
2023-03-02T15:27:00.715Z,15.57
2023-03-02T15:29:35.607Z,16.63
2023-03-02T15:32:09.132Z,19.15
2023-03-02T15:34:43.072Z,13.88
2023-03-02T15:37:16.615Z,13.80
2023-03-02T15:39:55.361Z,15.93
2023-03-02T15:42:28.887Z,16.95
2023-03-02T15:45:03.854Z,19.90
2023-03-02T15:47:38.429Z,16.00
2023-03-02T15:50:13.328Z,12.80
2023-03-02T15:52:47.126Z,18.45
2023-03-02T15:55:20.700Z,18.77
2023-03-02T15:57:54.221Z,21.08
2023-03-02T16:00:29.346Z,20.88
2023-03-02T16:03:03.165Z,18.55
2023-03-02T16:05:36.805Z,15.07
2023-03-02T16:08:10.352Z,15.52
2023-03-02T16:10:44.047Z,16.83
2023-03-02T16:13:17.524Z,16.73
2023-03-02T16:15:52.435Z,17.70
2023-03-02T16:18:25.999Z,35.22
2023-03-02T16:20:59.827Z,16.38
2023-03-02T16:23:33.352Z,19.52
2023-03-02T16:26:11.764Z,12.57
2023-03-02T16:28:45.528Z,14.38
2023-03-02T16:31:21.928Z,24.35
2023-03-02T16:33:57.576Z,27.77
2023-03-02T16:36:31.202Z,31.92
2023-03-02T16:39:06.233Z,24.77
2023-03-02T16:41:43.749Z,27.92
2023-03-02T16:44:17.411Z,32.10
2023-03-02T16:46:52.603Z,14.25
2023-03-02T16:49:28.621Z,34.08
2023-03-02T16:52:02.287Z,17.25
2023-03-02T16:54:35.774Z,18.98
2023-03-02T16:57:09.606Z,38.92
2023-03-02T16:59:43.102Z,24.73
2023-03-02T17:02:17.974Z,15.20
2023-03-02T17:04:51.482Z,19.73
2023-03-02T17:07:24.986Z,21.30
2023-03-02T17:09:58.544Z,24.35
2023-03-02T17:12:32.137Z,24.13
2023-03-02T17:15:06.843Z,31.02
2023-03-02T17:17:41.995Z,21.73
2023-03-02T17:20:15.883Z,18.75
2023-03-02T17:22:49.410Z,45.45
2023-03-02T17:25:23.203Z,34.30
2023-03-02T17:27:56.804Z,65.35
2023-03-02T17:30:30.300Z,61.33
2023-03-02T17:33:05.431Z,60.97
2023-03-02T17:35:39.036Z,59.67
2023-03-02T17:38:12.536Z,60.13
2023-03-02T17:40:46.026Z,78.53
2023-03-02T17:43:19.530Z,63.05
2023-03-02T17:45:53.105Z,105.15
2023-03-02T17:48:28.052Z,108.53
2023-03-02T17:51:01.563Z,51.60
2023-03-02T17:53:35.085Z,75.80
2023-03-02T17:56:09.379Z,95.15
2023-03-02T17:58:45.303Z,112.20
2023-03-02T18:01:19.007Z,99.47
2023-03-02T18:03:54.415Z,98.93
2023-03-02T18:06:28.693Z,113.30
2023-03-02T18:09:02.200Z,103.20
2023-03-02T18:11:35.696Z,92.25
2023-03-02T18:14:09.514Z,89.15
2023-03-02T18:16:43.270Z,114.15
2023-03-02T18:19:18.140Z,124.25
2023-03-02T18:21:51.632Z,142.20
2023-03-02T18:24:25.130Z,126.35
2023-03-02T18:26:58.807Z,143.85
2023-03-02T18:29:32.731Z,142.32
2023-03-02T18:32:06.898Z,173.88
2023-03-02T18:34:42.038Z,135.18
2023-03-02T18:37:15.746Z,118.38
2023-03-02T18:39:49.182Z,109.15
2023-03-02T18:42:22.659Z,123.50
2023-03-02T18:44:56.117Z,120.63
2023-03-02T18:47:30.402Z,113.18
2023-03-02T18:50:06.581Z,124.60
2023-03-02T18:52:40.075Z,130.13
2023-03-02T18:55:14.447Z,126.00
2023-03-02T18:57:49.167Z,143.15
2023-03-02T19:00:27.608Z,132.93
2023-03-02T19:03:01.351Z,118.70
2023-03-02T19:05:36.265Z,123.20
2023-03-02T19:08:10.174Z,112.38
2023-03-02T19:10:43.805Z,94.07
2023-03-02T19:13:17.354Z,112.80
2023-03-02T19:15:51.198Z,97.63
2023-03-02T19:18:26.272Z,91.10
2023-03-02T19:21:01.752Z,103.97
2023-03-02T19:23:35.265Z,103.95
2023-03-02T19:26:09.430Z,90.55
2023-03-02T19:28:42.925Z,122.35
2023-03-02T19:31:16.766Z,100.85
2023-03-02T19:33:50.372Z,106.32
2023-03-02T19:36:25.318Z,141.48
2023-03-02T19:38:58.837Z,127.28
2023-03-02T19:41:32.423Z,121.68
2023-03-02T19:44:06.170Z,105.90
2023-03-02T19:46:39.731Z,125.72
2023-03-02T19:49:13.236Z,115.03
2023-03-02T19:51:48.261Z,100.18
2023-03-02T19:54:21.854Z,107.35
2023-03-02T19:56:55.396Z,110.50
2023-03-02T19:59:30.728Z,102.55
2023-03-02T20:02:04.440Z,114.03
2023-03-02T20:04:38.004Z,101.07
2023-03-02T20:07:12.914Z,96.40
2023-03-02T20:09:46.817Z,84.72
2023-03-02T20:12:21.552Z,85.22
2023-03-02T20:14:56.881Z,85.63
2023-03-02T20:17:30.925Z,93.50
2023-03-02T20:20:05.694Z,99.18
2023-03-02T20:22:40.729Z,108.57
2023-03-02T20:25:14.799Z,105.28
2023-03-02T20:27:51.768Z,91.85
2023-03-02T20:30:30.884Z,108.82
2023-03-02T20:33:07.094Z,97.95
2023-03-02T20:35:42.607Z,99.88
2023-03-02T20:38:20.979Z,94.93
2023-03-02T20:40:54.510Z,93.35
2023-03-02T20:43:28.310Z,90.25
2023-03-02T20:46:02.064Z,86.10
2023-03-02T20:48:35.961Z,82.72
2023-03-02T20:51:09.433Z,99.40
2023-03-02T20:53:46.960Z,108.82
2023-03-02T20:56:21.257Z,101.25
2023-03-02T20:58:54.995Z,104.00
2023-03-02T21:01:29.832Z,109.75
2023-03-02T21:04:03.318Z,129.07
2023-03-02T21:06:36.843Z,154.25
2023-03-02T21:09:12.165Z,133.02
2023-03-02T21:11:45.810Z,113.13
2023-03-02T21:14:19.331Z,125.88
2023-03-02T21:16:53.093Z,140.25
2023-03-02T21:19:29.125Z,127.93
2023-03-02T21:22:02.937Z,122.03
2023-03-02T21:24:37.799Z,121.32
2023-03-02T21:27:11.348Z,139.57
2023-03-02T21:29:45.266Z,144.90
2023-03-02T21:32:18.764Z,148.68
2023-03-02T21:34:52.194Z,149.45
2023-03-02T21:37:25.920Z,118.72
2023-03-02T21:40:01.827Z,116.53
2023-03-02T21:42:35.999Z,121.50
2023-03-02T21:45:11.231Z,134.65
2023-03-02T21:47:44.830Z,149.00
2023-03-02T21:50:20.938Z,142.80
2023-03-02T21:52:54.740Z,149.27
2023-03-02T21:55:30.793Z,115.78
2023-03-02T21:58:06.244Z,104.18
2023-03-02T22:00:42.022Z,112.88
2023-03-02T22:03:16.026Z,134.65
2023-03-02T22:05:49.736Z,125.20
2023-03-02T22:08:23.419Z,138.48
2023-03-02T22:10:58.321Z,103.82
2023-03-02T22:13:33.617Z,98.70
2023-03-02T22:16:14.485Z,101.00
2023-03-02T22:18:50.176Z,98.47
2023-03-02T22:21:31.966Z,87.60
2023-03-02T22:24:19.047Z,110.15
2023-03-02T22:26:59.676Z,106.82
2023-03-02T22:29:36.815Z,153.35
2023-03-02T22:32:18.275Z,118.90
2023-03-02T22:34:53.793Z,117.45
2023-03-02T22:37:29.697Z,108.53
2023-03-02T22:40:09.239Z,113.25
2023-03-02T22:42:44.115Z,106.53
2023-03-02T22:45:23.114Z,135.95
2023-03-02T22:47:56.810Z,125.72
2023-03-02T22:50:31.651Z,128.65
2023-03-02T22:53:14.724Z,122.50
2023-03-02T22:55:49.066Z,123.03
2023-03-02T22:58:30.936Z,140.15
2023-03-02T23:01:07.544Z,109.32
2023-03-02T23:03:43.987Z,117.80
2023-03-02T23:06:29.485Z,97.20
2023-03-02T23:09:05.156Z,100.03
2023-03-02T23:11:41.828Z,107.38
2023-03-02T23:14:28.699Z,110.13
2023-03-02T23:17:06.769Z,129.23
2023-03-02T23:19:40.222Z,126.65
2023-03-02T23:22:13.705Z,144.82
2023-03-02T23:24:47.219Z,147.35
2023-03-02T23:27:20.747Z,115.35
2023-03-02T23:29:55.742Z,127.40
2023-03-02T23:32:29.232Z,137.85
2023-03-02T23:35:02.717Z,123.32
2023-03-02T23:37:36.142Z,112.40
2023-03-02T23:40:11.672Z,129.43
2023-03-02T23:42:45.103Z,134.30
2023-03-02T23:45:19.970Z,116.10
2023-03-02T23:47:53.451Z,118.22
2023-03-02T23:50:26.917Z,109.70
2023-03-02T23:53:00.384Z,99.32
2023-03-02T23:55:34.345Z,110.45
2023-03-02T23:58:07.870Z,133.07
